Time;durP1;ratioP1;P1;durP2;ratioP2;P2;SDS_P1;SDS_P2;PMS_P1;PMS_P2;Temp;Humidity;BMP_temperature;BMP_pressure;BME280_temperature;BME280_humidity;BME280_pressure;Samples;Min_cycle;Max_cycle;Signal;HPM_P1;HPM_P2
2022/01/29 00:01:50;;;;;;;17.07;4.70;;;5.40;99.90;;;;;;625195;228;26816;-73
2022/01/29 00:04:18;;;;;;;21.90;5.03;;;5.60;99.90;;;;;;626457;229;26820;-73
2022/01/29 00:06:46;;;;;;;11.43;4.10;;;5.60;99.90;;;;;;625992;225;26595;-73
2022/01/29 00:09:15;;;;;;;15.37;4.10;;;5.60;99.90;;;;;;625755;229;26638;-73
2022/01/29 00:11:41;;;;;;;16.10;4.60;;;5.60;99.90;;;;;;625552;229;26624;-73
2022/01/29 00:14:09;;;;;;;11.47;4.47;;;5.50;99.90;;;;;;625405;230;26556;-73
2022/01/29 00:16:36;;;;;;;21.77;5.40;;;5.30;99.90;;;;;;625484;229;26765;-73
2022/01/29 00:19:03;;;;;;;19.60;4.73;;;5.20;99.90;;;;;;625385;225;27067;-74
2022/01/29 00:21:30;;;;;;;18.90;5.07;;;5.10;99.90;;;;;;625710;229;26616;-73
2022/01/29 00:23:57;;;;;;;18.87;5.70;;;5.10;99.90;;;;;;625748;226;26838;-73
2022/01/29 00:26:27;;;;;;;20.57;4.97;;;5.40;99.90;;;;;;625717;229;26591;-73
2022/01/29 00:28:55;;;;;;;17.53;5.10;;;5.30;99.90;;;;;;625654;229;26623;-73
2022/01/29 00:31:21;;;;;;;14.53;4.80;;;5.50;99.90;;;;;;625721;229;26622;-73
2022/01/29 00:33:49;;;;;;;17.13;5.07;;;5.40;99.90;;;;;;625623;229;26811;-73
2022/01/29 00:36:16;;;;;;;16.83;4.70;;;5.50;99.90;;;;;;625603;226;26618;-73
2022/01/29 00:38:43;;;;;;;16.83;4.73;;;5.70;99.90;;;;;;625384;229;26869;-73
2022/01/29 00:41:10;;;;;;;18.40;5.80;;;5.30;99.90;;;;;;625364;229;26634;-73
2022/01/29 00:43:37;;;;;;;14.97;4.53;;;5.20;99.90;;;;;;625390;229;26830;-73
2022/01/29 00:46:05;;;;;;;14.63;4.10;;;5.00;99.90;;;;;;625410;229;26602;-73
2022/01/29 00:48:33;;;;;;;18.13;4.83;;;5.00;99.90;;;;;;625400;229;26643;-73
2022/01/29 00:51:02;;;;;;;12.83;4.10;;;4.90;99.90;;;;;;625352;229;26623;-73
2022/01/29 00:53:28;;;;;;;13.97;4.53;;;4.80;99.90;;;;;;625435;230;26563;-73
2022/01/29 00:55:56;;;;;;;15.60;4.77;;;4.90;99.90;;;;;;625401;230;26574;-73
2022/01/29 00:58:23;;;;;;;18.73;5.03;;;5.00;99.90;;;;;;625373;226;26796;-73
2022/01/29 01:00:50;;;;;;;22.00;4.47;;;4.90;99.90;;;;;;625392;229;26751;-73
2022/01/29 01:03:17;;;;;;;16.07;4.90;;;5.10;99.90;;;;;;625381;229;26959;-73
2022/01/29 01:05:45;;;;;;;17.27;6.30;;;5.10;99.90;;;;;;625430;229;26551;-73
2022/01/29 01:08:13;;;;;;;18.43;4.70;;;5.10;99.90;;;;;;625417;230;26571;-73
2022/01/29 01:10:40;;;;;;;15.10;4.97;;;5.10;99.90;;;;;;625578;229;26576;-73
2022/01/29 01:13:07;;;;;;;14.77;4.10;;;5.10;99.90;;;;;;625582;227;26577;-73
2022/01/29 01:15:35;;;;;;;16.33;4.77;;;5.00;99.90;;;;;;627232;228;26868;-73
2022/01/29 01:18:02;;;;;;;12.83;5.20;;;5.10;99.90;;;;;;626657;229;26569;-73
2022/01/29 01:20:29;;;;;;;13.53;3.83;;;5.00;99.90;;;;;;626394;229;26808;-77
2022/01/29 01:22:56;;;;;;;20.40;4.40;;;5.10;99.90;;;;;;626296;229;26784;-77
2022/01/29 01:25:23;;;;;;;14.30;4.90;;;5.10;99.90;;;;;;626119;230;26856;-76
2022/01/29 01:27:52;;;;;;;13.10;4.43;;;5.10;99.90;;;;;;626187;230;26584;-76
2022/01/29 01:30:18;;;;;;;16.03;5.30;;;5.00;99.90;;;;;;626094;229;26595;-77
2022/01/29 01:32:46;;;;;;;18.17;4.50;;;5.00;99.90;;;;;;625885;230;26614;-77
2022/01/29 01:35:22;;;;;;;14.30;5.70;;;5.10;99.90;;;;;;625762;229;26638;-77
2022/01/29 01:37:51;;;;;;;19.30;5.57;;;5.00;99.90;;;;;;625304;230;26848;-76
2022/01/29 01:40:13;;;;;;;22.00;4.80;;;5.00;99.90;;;;;;625142;226;26847;-77
2022/01/29 01:42:39;;;;;;;12.70;4.90;;;5.20;99.90;;;;;;625687;229;26840;-77
2022/01/29 01:45:07;;;;;;;14.57;4.97;;;5.30;99.90;;;;;;625669;230;26840;-76
2022/01/29 01:47:35;;;;;;;18.57;4.63;;;5.20;99.90;;;;;;625709;229;26599;-76
2022/01/29 01:50:02;;;;;;;18.87;4.90;;;5.20;99.90;;;;;;625496;230;26605;-77
2022/01/29 01:52:30;;;;;;;17.73;4.77;;;5.20;99.90;;;;;;625326;225;26874;-76
2022/01/29 01:54:57;;;;;;;13.10;3.93;;;5.10;99.90;;;;;;625400;230;26822;-77
2022/01/29 01:57:24;;;;;;;18.27;5.47;;;5.40;99.90;;;;;;625444;230;26785;-77
2022/01/29 01:59:52;;;;;;;13.20;4.60;;;5.20;99.90;;;;;;625400;230;26552;-76
2022/01/29 02:02:21;;;;;;;16.33;4.33;;;5.10;99.90;;;;;;625386;229;26657;-76
2022/01/29 02:04:49;;;;;;;19.83;5.13;;;5.20;99.90;;;;;;625412;229;26616;-76
2022/01/29 02:07:15;;;;;;;18.50;5.73;;;5.20;99.90;;;;;;625431;229;26613;-76
2022/01/29 02:09:42;;;;;;;15.33;5.03;;;5.10;99.90;;;;;;625435;230;26561;-76
2022/01/29 02:12:11;;;;;;;10.47;4.97;;;5.40;99.90;;;;;;625361;229;26865;-76
2022/01/29 02:14:38;;;;;;;16.90;5.13;;;5.20;99.90;;;;;;625375;230;27033;-76
2022/01/29 02:17:05;;;;;;;11.03;4.37;;;5.10;99.90;;;;;;625405;229;26560;-76
2022/01/29 02:19:32;;;;;;;21.43;5.27;;;5.10;99.90;;;;;;625399;229;26605;-76
2022/01/29 02:22:00;;;;;;;17.10;5.03;;;5.00;99.90;;;;;;625319;230;26598;-76
2022/01/29 02:24:28;;;;;;;10.83;5.00;;;5.00;99.90;;;;;;625399;229;26564;-76
2022/01/29 02:26:55;;;;;;;20.17;5.07;;;4.90;99.90;;;;;;627086;228;26607;-77
2022/01/29 02:29:22;;;;;;;15.80;4.80;;;4.90;99.90;;;;;;626563;229;26614;-76
2022/01/29 02:31:49;;;;;;;18.53;5.70;;;4.80;99.90;;;;;;626260;229;26812;-76
2022/01/29 02:34:16;;;;;;;12.90;5.10;;;4.80;99.90;;;;;;625967;229;26793;-76
2022/01/29 02:36:44;;;;;;;21.40;6.13;;;4.90;99.90;;;;;;626066;229;26849;-77
2022/01/29 02:39:12;;;;;;;12.60;5.23;;;4.90;99.90;;;;;;625996;229;26619;-77
2022/01/29 02:41:43;;;;;;;17.27;4.93;;;4.90;99.90;;;;;;626039;229;26583;-76
2022/01/29 02:44:09;;;;;;;15.87;4.50;;;4.90;99.90;;;;;;625785;230;26634;-76
2022/01/29 02:46:48;;;;;;;15.00;4.57;;;4.80;99.90;;;;;;625706;229;26622;-76
2022/01/29 02:49:09;;;;;;;18.03;5.73;;;4.80;99.90;;;;;;625598;229;26605;-77
2022/01/29 02:51:37;;;;;;;15.93;5.07;;;5.00;99.90;;;;;;625672;229;26631;-76
2022/01/29 02:54:04;;;;;;;13.57;4.77;;;5.00;99.90;;;;;;624861;227;26619;-77
2022/01/29 02:56:31;;;;;;;18.27;5.23;;;5.20;99.90;;;;;;625719;225;26607;-76
2022/01/29 02:58:59;;;;;;;15.60;5.23;;;5.20;99.90;;;;;;625667;229;26893;-76
2022/01/29 03:01:26;;;;;;;16.43;4.73;;;5.30;99.90;;;;;;625508;230;26667;-76
2022/01/29 03:03:53;;;;;;;13.73;4.93;;;5.40;99.90;;;;;;625303;229;26855;-76
2022/01/29 03:06:21;;;;;;;15.77;5.13;;;4.90;99.90;;;;;;625316;230;26572;-76
2022/01/29 03:08:49;;;;;;;13.27;5.47;;;4.70;99.90;;;;;;625253;229;26620;-76
2022/01/29 03:11:19;;;;;;;19.67;5.17;;;4.70;99.90;;;;;;625299;230;26591;-76
2022/01/29 03:13:43;;;;;;;15.30;5.63;;;4.70;99.90;;;;;;625205;229;26874;-76
2022/01/29 03:16:10;;;;;;;13.20;5.10;;;4.60;99.90;;;;;;625256;229;26872;-76
2022/01/29 03:18:38;;;;;;;15.33;5.40;;;4.80;99.90;;;;;;625312;229;26815;-76
2022/01/29 03:21:05;;;;;;;21.17;5.03;;;4.90;99.90;;;;;;625444;229;26831;-76
2022/01/29 03:23:32;;;;;;;21.43;5.47;;;5.10;99.90;;;;;;625468;230;26568;-76
2022/01/29 03:26:00;;;;;;;14.00;5.87;;;4.90;99.90;;;;;;625510;229;26550;-76
2022/01/29 03:28:28;;;;;;;15.97;5.27;;;4.90;99.90;;;;;;625439;229;26537;-76
2022/01/29 03:30:55;;;;;;;15.73;5.23;;;5.10;99.90;;;;;;625441;230;26795;-76
2022/01/29 03:33:23;;;;;;;14.80;5.60;;;5.00;99.90;;;;;;625491;229;26572;-75
2022/01/29 03:35:50;;;;;;;14.57;4.93;;;4.90;99.90;;;;;;625491;229;26789;-76
2022/01/29 03:38:17;;;;;;;19.73;5.83;;;4.80;99.90;;;;;;627042;227;26615;-76
2022/01/29 03:40:47;;;;;;;15.37;5.53;;;4.70;99.90;;;;;;626750;229;27298;-76
2022/01/29 03:43:15;;;;;;;17.93;6.17;;;4.90;99.90;;;;;;626381;229;26594;-75
2022/01/29 03:45:40;;;;;;;16.07;5.77;;;4.80;99.90;;;;;;626209;229;26550;-75
2022/01/29 03:48:08;;;;;;;14.23;5.87;;;4.80;99.90;;;;;;626182;229;26619;-75
2022/01/29 03:50:36;;;;;;;19.33;5.97;;;4.80;99.90;;;;;;626159;230;26616;-75
2022/01/29 03:53:03;;;;;;;19.73;6.30;;;4.70;99.90;;;;;;626060;229;26631;-75
2022/01/29 03:55:30;;;;;;;12.57;5.97;;;4.60;99.90;;;;;;626012;230;26620;-76
2022/01/29 03:57:58;;;;;;;15.23;5.83;;;4.80;99.90;;;;;;625840;229;26578;-75
2022/01/29 04:00:25;;;;;;;12.83;6.70;;;4.70;99.90;;;;;;625800;230;27275;-75
2022/01/29 04:02:52;;;;;;;18.73;7.50;;;4.60;99.90;;;;;;625704;229;26595;-76
2022/01/29 04:05:19;;;;;;;15.83;6.63;;;4.80;99.90;;;;;;625668;230;26858;-76
2022/01/29 04:07:47;;;;;;;20.77;7.33;;;4.70;99.90;;;;;;625673;229;26607;-76
2022/01/29 04:10:15;;;;;;;18.23;6.97;;;4.60;99.90;;;;;;625629;229;26886;-76
2022/01/29 04:12:46;;;;;;;16.10;6.17;;;4.40;99.90;;;;;;625566;229;26634;-76
2022/01/29 04:15:10;;;;;;;19.27;7.07;;;4.40;99.90;;;;;;625062;230;26567;-75
2022/01/29 04:17:37;;;;;;;15.53;7.67;;;4.30;99.90;;;;;;625350;229;26878;-76
2022/01/29 04:20:04;;;;;;;20.17;8.40;;;4.40;99.90;;;;;;625375;230;26608;-76
2022/01/29 04:22:32;;;;;;;15.97;7.67;;;4.60;99.90;;;;;;625367;229;26578;-76
2022/01/29 04:25:00;;;;;;;18.07;7.23;;;4.30;99.90;;;;;;625385;229;26584;-76
2022/01/29 04:30:03;;;;;;;19.77;8.27;;;4.30;99.90;;;;;;625356;230;26621;-76
2022/01/29 04:32:55;;;;;;;20.07;8.77;;;4.40;99.90;;;;;;625126;230;26894;-75
2022/01/29 04:34:58;;;;;;;22.23;8.87;;;4.30;99.90;;;;;;625020;229;26616;-76
2022/01/29 04:37:25;;;;;;;26.23;9.50;;;4.40;99.90;;;;;;625366;230;26560;-76
2022/01/29 04:39:52;;;;;;;19.07;9.13;;;4.40;99.90;;;;;;625389;229;26801;-76
2022/01/29 04:42:19;;;;;;;21.13;8.63;;;4.50;99.90;;;;;;625411;229;26574;-76
2022/01/29 04:44:47;;;;;;;18.07;8.63;;;4.60;99.90;;;;;;625385;229;26890;-76
2022/01/29 04:47:15;;;;;;;18.73;9.17;;;4.50;99.90;;;;;;625388;229;26552;-76
2022/01/29 04:49:43;;;;;;;19.63;8.60;;;4.40;99.90;;;;;;626774;226;26630;-75
2022/01/29 04:52:10;;;;;;;20.83;10.03;;;4.40;99.90;;;;;;626648;229;26637;-75
2022/01/29 04:54:38;;;;;;;15.27;8.50;;;4.50;99.90;;;;;;626294;229;26567;-76
2022/01/29 04:57:06;;;;;;;17.57;9.10;;;4.50;99.90;;;;;;626272;229;26566;-76
2022/01/29 04:59:34;;;;;;;15.20;8.87;;;4.70;99.90;;;;;;625965;230;26891;-76
2022/01/29 05:02:01;;;;;;;21.10;10.23;;;4.60;99.90;;;;;;625948;230;26641;-76
2022/01/29 05:04:28;;;;;;;19.67;10.13;;;4.70;99.90;;;;;;625973;229;26895;-76
2022/01/29 05:06:55;;;;;;;18.17;9.90;;;4.70;99.90;;;;;;625857;230;26600;-76
2022/01/29 05:09:23;;;;;;;30.80;11.57;;;4.70;99.90;;;;;;625700;229;27251;-77
2022/01/29 05:11:52;;;;;;;22.57;10.83;;;4.70;99.90;;;;;;625684;230;26627;-76
2022/01/29 05:14:42;;;;;;;21.10;10.67;;;4.70;99.90;;;;;;625548;230;26616;-76
2022/01/29 05:27:14;;;;;;;24.57;10.17;;;4.40;99.90;;;;;;625421;230;26657;-76
2022/01/29 05:29:41;;;;;;;17.93;9.80;;;4.50;99.90;;;;;;625408;229;26832;-75
2022/01/29 05:32:08;;;;;;;19.93;10.77;;;4.50;99.90;;;;;;625397;230;26862;-76
2022/01/29 05:34:36;;;;;;;19.23;10.07;;;4.70;99.90;;;;;;625433;229;26586;-76
2022/01/29 05:37:04;;;;;;;22.63;9.77;;;4.50;99.90;;;;;;625473;229;26568;-76
2022/01/29 05:39:31;;;;;;;18.60;9.50;;;4.40;99.90;;;;;;625333;229;26565;-75
2022/01/29 05:41:59;;;;;;;20.27;10.50;;;4.60;99.90;;;;;;625442;229;26555;-76
2022/01/29 05:44:27;;;;;;;21.50;10.10;;;4.50;99.90;;;;;;625458;229;26564;-75
2022/01/29 05:46:54;;;;;;;18.13;10.13;;;4.40;99.90;;;;;;625510;230;26780;-76
2022/01/29 05:49:22;;;;;;;14.83;10.03;;;4.50;99.90;;;;;;625438;230;26846;-75
2022/01/29 05:51:49;;;;;;;17.73;9.80;;;4.40;99.90;;;;;;625474;229;26577;-75
2022/01/29 05:54:16;;;;;;;20.37;10.20;;;4.40;99.90;;;;;;625494;229;26876;-76
2022/01/29 05:56:43;;;;;;;24.07;10.33;;;4.60;99.90;;;;;;625438;229;26552;-76
2022/01/29 05:59:10;;;;;;;19.33;10.40;;;4.60;99.90;;;;;;625472;229;26811;-76
2022/01/29 06:01:38;;;;;;;17.77;9.53;;;4.50;99.90;;;;;;627168;227;26601;-76
2022/01/29 06:04:06;;;;;;;19.23;10.43;;;4.60;99.90;;;;;;626607;229;26578;-76
2022/01/29 06:06:34;;;;;;;18.27;10.43;;;4.50;99.90;;;;;;626390;229;26559;-75
2022/01/29 06:09:04;;;;;;;20.63;10.90;;;4.40;99.90;;;;;;626294;229;26550;-76
2022/01/29 06:11:30;;;;;;;16.33;9.63;;;4.60;99.90;;;;;;625979;229;26625;-75
2022/01/29 06:13:57;;;;;;;22.30;10.43;;;4.60;99.90;;;;;;626017;229;26844;-76
2022/01/29 06:16:24;;;;;;;18.53;11.00;;;4.70;99.90;;;;;;626023;229;26624;-75
2022/01/29 06:18:52;;;;;;;17.53;10.60;;;4.80;99.90;;;;;;625804;229;26850;-76
2022/01/29 06:21:19;;;;;;;21.40;11.13;;;4.80;99.90;;;;;;625647;229;26643;-76
2022/01/29 06:23:46;;;;;;;18.83;10.63;;;4.60;99.90;;;;;;625698;230;26797;-76
2022/01/29 06:26:13;;;;;;;20.40;10.73;;;4.60;99.90;;;;;;625716;230;26658;-76
2022/01/29 06:28:40;;;;;;;22.00;12.20;;;4.50;99.90;;;;;;625632;229;27243;-76
2022/01/29 06:31:09;;;;;;;16.60;11.90;;;4.60;99.90;;;;;;625729;229;26596;-76
2022/01/29 06:33:35;;;;;;;21.80;12.33;;;4.50;99.90;;;;;;625655;229;26875;-75
2022/01/29 06:36:02;;;;;;;25.77;12.40;;;4.60;99.90;;;;;;625561;229;26602;-76
2022/01/29 06:38:29;;;;;;;23.33;11.40;;;4.60;99.90;;;;;;625397;229;27247;-76
2022/01/29 06:40:56;;;;;;;21.03;12.87;;;4.70;99.90;;;;;;625348;229;26607;-76
2022/01/29 06:43:24;;;;;;;22.90;12.50;;;4.70;99.90;;;;;;625338;230;26811;-76
2022/01/29 06:45:51;;;;;;;20.03;12.07;;;4.70;99.90;;;;;;625381;229;26604;-75
2022/01/29 06:48:19;;;;;;;19.30;11.30;;;4.70;99.90;;;;;;625366;229;26635;-75
2022/01/29 06:50:47;;;;;;;20.03;12.30;;;4.70;99.90;;;;;;625392;229;26641;-75
2022/01/29 06:53:15;;;;;;;19.87;12.10;;;4.70;99.90;;;;;;625368;230;26652;-75
2022/01/29 06:55:43;;;;;;;18.57;11.83;;;4.60;99.90;;;;;;625392;230;26572;-75
2022/01/29 06:58:11;;;;;;;19.60;12.10;;;4.60;99.90;;;;;;625402;229;26586;-75
2022/01/29 07:00:39;;;;;;;24.07;12.53;;;4.60;99.90;;;;;;625410;230;26618;-76
2022/01/29 07:03:06;;;;;;;20.80;13.57;;;4.50;99.90;;;;;;625418;229;26596;-76
2022/01/29 07:05:33;;;;;;;19.90;13.50;;;4.60;99.90;;;;;;625452;230;26850;-76
2022/01/29 07:08:00;;;;;;;20.97;12.57;;;4.70;99.90;;;;;;625418;229;26572;-76
2022/01/29 07:10:27;;;;;;;25.63;13.07;;;4.70;99.90;;;;;;625339;229;26612;-76
2022/01/29 07:12:55;;;;;;;24.37;13.37;;;4.80;99.90;;;;;;626749;227;26640;-76
2022/01/29 07:15:22;;;;;;;22.87;13.57;;;4.80;99.90;;;;;;626690;229;26881;-76
2022/01/29 07:17:49;;;;;;;21.00;12.40;;;4.90;99.90;;;;;;626411;229;26540;-76
2022/01/29 07:20:16;;;;;;;22.27;13.37;;;4.60;99.90;;;;;;626379;229;27195;-75
2022/01/29 07:22:43;;;;;;;24.27;12.57;;;4.70;99.90;;;;;;628761;225;26640;-76
2022/01/29 07:25:10;;;;;;;19.70;12.60;;;4.80;99.90;;;;;;632724;225;26929;-76
2022/01/29 07:27:38;;;;;;;21.83;13.27;;;4.70;99.90;;;;;;628692;225;26578;-75
2022/01/29 07:30:06;;;;;;;20.73;13.17;;;4.80;99.90;;;;;;631466;225;26816;-72
2022/01/29 07:32:33;;;;;;;19.67;13.13;;;4.90;99.90;;;;;;630488;225;26870;-72
2022/01/29 07:35:01;;;;;;;17.97;12.87;;;4.80;99.90;;;;;;631207;225;26594;-72
2022/01/29 07:37:29;;;;;;;18.40;12.70;;;4.70;99.90;;;;;;630233;225;26584;-72
2022/01/29 07:39:57;;;;;;;18.40;12.97;;;4.80;99.90;;;;;;627800;226;26619;-72
2022/01/29 07:42:25;;;;;;;16.33;13.10;;;4.90;99.90;;;;;;631194;225;26657;-72
2022/01/29 07:44:53;;;;;;;18.87;13.67;;;5.10;99.90;;;;;;629541;225;26614;-72
2022/01/29 07:47:21;;;;;;;18.53;12.67;;;5.10;99.90;;;;;;629813;225;26554;-72
2022/01/29 07:49:48;;;;;;;16.47;12.70;;;5.10;99.90;;;;;;629233;226;26589;-72
2022/01/29 07:52:15;;;;;;;19.43;13.17;;;5.40;99.90;;;;;;629357;226;26839;-72
2022/01/29 07:54:43;;;;;;;18.60;14.03;;;5.30;99.90;;;;;;627191;229;27268;-72
2022/01/29 07:57:10;;;;;;;18.93;13.27;;;5.40;99.90;;;;;;627978;226;26607;-72
2022/01/29 07:59:37;;;;;;;16.33;12.63;;;5.30;99.90;;;;;;630263;225;26847;-72
2022/01/29 08:02:04;;;;;;;16.73;12.63;;;5.10;99.90;;;;;;628319;225;26598;-72
2022/01/29 08:04:31;;;;;;;22.33;13.00;;;5.10;99.90;;;;;;630621;225;26801;-72
2022/01/29 08:06:59;;;;;;;17.07;12.47;;;5.00;99.90;;;;;;631066;225;26581;-72
2022/01/29 08:09:26;;;;;;;17.17;12.23;;;5.00;99.90;;;;;;629320;223;26817;-72
2022/01/29 08:11:53;;;;;;;19.23;12.47;;;5.10;99.90;;;;;;626811;225;26604;-72
2022/01/29 08:14:20;;;;;;;16.67;11.90;;;5.10;99.90;;;;;;627656;226;26843;-72
2022/01/29 08:16:47;;;;;;;14.83;11.80;;;5.10;99.90;;;;;;632858;225;26605;-72
2022/01/29 08:19:15;;;;;;;17.83;12.47;;;5.00;99.90;;;;;;629731;225;26585;-72
2022/01/29 08:21:42;;;;;;;16.30;12.60;;;5.10;99.90;;;;;;629644;226;26601;-73
2022/01/29 08:24:10;;;;;;;15.73;12.37;;;5.20;99.90;;;;;;628776;224;26588;-72
2022/01/29 08:26:38;;;;;;;18.87;12.67;;;5.30;99.90;;;;;;630564;225;26546;-77
2022/01/29 08:29:06;;;;;;;15.80;12.67;;;5.40;99.90;;;;;;632187;223;26601;-77
2022/01/29 08:31:35;;;;;;;20.17;13.37;;;5.40;99.90;;;;;;633286;224;26650;-77
2022/01/29 08:34:03;;;;;;;18.27;12.20;;;5.20;99.90;;;;;;628454;226;26613;-77
2022/01/29 08:36:31;;;;;;;19.73;14.20;;;5.20;99.90;;;;;;628610;226;26610;-72
2022/01/29 08:38:59;;;;;;;17.60;12.80;;;5.20;99.90;;;;;;626703;228;26575;-72
2022/01/29 08:41:26;;;;;;;17.07;12.70;;;5.20;99.90;;;;;;631071;226;26631;-72
2022/01/29 08:43:53;;;;;;;15.93;11.77;;;5.10;99.90;;;;;;633846;226;26588;-72
2022/01/29 08:46:21;;;;;;;16.57;12.83;;;5.20;99.90;;;;;;625794;228;26853;-72
2022/01/29 08:48:48;;;;;;;20.00;14.07;;;5.20;99.90;;;;;;627460;228;26586;-72
2022/01/29 08:51:16;;;;;;;17.50;13.60;;;5.40;99.90;;;;;;633498;226;26623;-72
2022/01/29 08:53:44;;;;;;;16.00;13.33;;;5.40;99.90;;;;;;626630;226;26614;-73
2022/01/29 08:56:12;;;;;;;17.10;12.70;;;5.30;99.90;;;;;;625693;229;26575;-72
2022/01/29 08:58:40;;;;;;;14.77;11.60;;;5.30;99.90;;;;;;630097;226;26599;-72
2022/01/29 09:01:08;;;;;;;18.20;14.03;;;5.30;99.90;;;;;;628801;226;26599;-72
2022/01/29 09:03:35;;;;;;;18.83;14.10;;;5.40;99.90;;;;;;625395;229;26559;-72
2022/01/29 09:06:03;;;;;;;18.83;14.00;;;5.40;99.90;;;;;;628037;228;26594;-72
2022/01/29 09:08:31;;;;;;;19.43;12.37;;;5.40;99.90;;;;;;626697;228;26581;-73
2022/01/29 09:10:59;;;;;;;17.50;13.73;;;5.60;99.90;;;;;;626753;228;26616;-73
2022/01/29 09:13:26;;;;;;;16.80;12.63;;;5.50;99.90;;;;;;627985;228;26591;-73
2022/01/29 09:15:53;;;;;;;17.87;13.73;;;5.60;99.90;;;;;;628297;229;26816;-72
2022/01/29 09:18:20;;;;;;;19.87;13.93;;;5.50;99.90;;;;;;626052;228;26771;-73
2022/01/29 09:20:47;;;;;;;22.37;13.53;;;5.60;99.90;;;;;;627604;228;26552;-72
2022/01/29 09:23:14;;;;;;;24.33;14.10;;;5.60;99.90;;;;;;629198;225;26817;-72
2022/01/29 09:25:42;;;;;;;17.10;12.83;;;5.70;99.90;;;;;;630616;225;26558;-73
2022/01/29 09:28:09;;;;;;;19.60;14.20;;;5.60;99.90;;;;;;633233;226;26859;-75
2022/01/29 09:30:36;;;;;;;21.00;13.80;;;5.80;99.90;;;;;;631128;225;26575;-75
2022/01/29 09:33:03;;;;;;;20.27;15.00;;;5.90;99.90;;;;;;630620;220;26914;-75
2022/01/29 09:35:30;;;;;;;21.23;14.00;;;6.00;99.90;;;;;;627025;227;26564;-77
2022/01/29 09:37:58;;;;;;;20.53;14.67;;;5.90;99.90;;;;;;630011;228;26757;-78
2022/01/29 09:40:25;;;;;;;18.93;14.30;;;6.00;99.90;;;;;;630348;226;26548;-73
2022/01/29 09:42:52;;;;;;;20.80;14.93;;;6.00;99.90;;;;;;631200;226;26629;-74
2022/01/29 09:45:21;;;;;;;22.10;14.37;;;6.20;99.90;;;;;;626437;229;26575;-73
2022/01/29 09:47:48;;;;;;;20.87;15.90;;;6.40;99.90;;;;;;627432;225;26581;-74
2022/01/29 09:50:15;;;;;;;21.83;16.37;;;6.40;99.90;;;;;;634216;226;26561;-73
2022/01/29 09:52:42;;;;;;;20.87;16.07;;;6.30;99.90;;;;;;628066;228;26585;-75
2022/01/29 09:55:10;;;;;;;18.37;15.17;;;6.40;99.90;;;;;;626176;228;26617;-74
2022/01/29 09:57:37;;;;;;;21.27;16.93;;;6.30;99.90;;;;;;634525;226;26571;-74
2022/01/29 10:00:04;;;;;;;22.27;15.47;;;6.30;99.90;;;;;;633798;225;26800;-73
2022/01/29 10:02:31;;;;;;;27.27;16.63;;;6.20;99.90;;;;;;627506;228;26815;-72
2022/01/29 10:04:59;;;;;;;22.30;17.07;;;6.10;99.90;;;;;;633620;225;26572;-72
2022/01/29 10:07:26;;;;;;;25.77;17.47;;;6.30;99.90;;;;;;629203;225;26825;-73
2022/01/29 10:09:54;;;;;;;22.93;13.50;;;6.60;99.90;;;;;;626044;228;26596;-74
2022/01/29 10:12:28;;;;;;;25.20;17.67;;;6.40;99.90;;;;;;630556;226;26616;-73
2022/01/29 10:14:55;;;;;;;25.23;18.00;;;6.40;99.90;;;;;;634879;226;26544;-72
2022/01/29 10:17:34;;;;;;;26.47;18.77;;;6.50;99.90;;;;;;627830;226;26603;-73
2022/01/29 10:20:08;;;;;;;26.03;17.87;;;6.70;99.90;;;;;;636069;225;26592;-72
2022/01/29 10:22:35;;;;;;;26.50;18.80;;;6.80;99.90;;;;;;626901;228;26884;-72
2022/01/29 10:25:06;;;;;;;22.67;17.57;;;6.80;99.90;;;;;;628691;228;26601;-72
2022/01/29 10:27:33;;;;;;;27.60;18.97;;;6.90;99.90;;;;;;625803;226;26528;-73
2022/01/29 10:30:01;;;;;;;26.13;19.07;;;7.10;99.90;;;;;;626100;228;27217;-70
2022/01/29 10:32:28;;;;;;;24.13;18.27;;;7.20;99.90;;;;;;627516;224;26620;-72
2022/01/29 10:34:55;;;;;;;26.80;18.60;;;7.20;99.90;;;;;;630919;226;26883;-71
2022/01/29 10:37:23;;;;;;;23.73;17.17;;;7.00;99.90;;;;;;628248;226;26548;-72
2022/01/29 10:39:52;;;;;;;27.13;19.53;;;6.80;99.90;;;;;;625839;226;26556;-73
2022/01/29 10:42:22;;;;;;;31.73;19.83;;;6.80;99.90;;;;;;626185;229;27058;-73
2022/01/29 10:44:49;;;;;;;26.60;18.80;;;7.00;99.90;;;;;;628366;229;26576;-73
2022/01/29 10:47:16;;;;;;;26.57;18.53;;;7.40;99.90;;;;;;634460;224;26866;-73
2022/01/29 10:49:49;;;;;;;25.17;18.97;;;7.20;99.90;;;;;;631106;225;26540;-71
2022/01/29 10:52:16;;;;;;;23.80;17.57;;;7.30;99.90;;;;;;634195;226;26837;-72
2022/01/29 10:54:43;;;;;;;27.87;19.03;;;7.00;99.90;;;;;;628009;228;27286;-71
2022/01/29 10:57:11;;;;;;;27.20;19.90;;;7.00;99.90;;;;;;628264;228;26542;-71
2022/01/29 10:59:44;;;;;;;26.37;19.07;;;7.20;99.90;;;;;;626933;225;26582;-72
2022/01/29 11:02:11;;;;;;;24.23;18.67;;;7.10;99.90;;;;;;637716;225;26574;-72
2022/01/29 11:04:39;;;;;;;22.87;17.83;;;7.20;99.90;;;;;;631761;226;26591;-72
2022/01/29 11:07:12;;;;;;;20.03;16.30;;;7.20;99.90;;;;;;626861;228;26964;-73
2022/01/29 11:09:33;;;;;;;21.03;16.17;;;7.20;99.90;;;;;;625242;228;26594;-72
2022/01/29 11:12:02;;;;;;;19.53;16.70;;;7.10;99.90;;;;;;628798;224;26854;-72
2022/01/29 11:14:29;;;;;;;25.97;17.57;;;7.30;99.90;;;;;;627025;228;26820;-72
2022/01/29 11:16:56;;;;;;;20.50;16.40;;;7.20;99.90;;;;;;632642;226;26574;-71
2022/01/29 11:19:23;;;;;;;20.10;16.33;;;7.20;99.90;;;;;;629623;226;26825;-73
2022/01/29 11:21:51;;;;;;;24.27;16.73;;;7.40;99.90;;;;;;635079;225;26610;-71
2022/01/29 11:24:19;;;;;;;20.00;15.37;;;7.40;99.90;;;;;;632014;226;26559;-72
2022/01/29 11:26:46;;;;;;;25.67;17.83;;;7.30;99.90;;;;;;625493;229;26788;-72
2022/01/29 11:29:24;;;;;;;28.50;19.57;;;7.30;99.90;;;;;;632080;226;26595;-73
2022/01/29 11:32:03;;;;;;;35.97;22.87;;;7.50;99.90;;;;;;634808;226;26929;-73
2022/01/29 11:34:31;;;;;;;35.23;21.60;;;7.80;99.90;;;;;;634792;226;26620;-73
2022/01/29 11:37:05;;;;;;;27.23;19.77;;;7.80;99.90;;;;;;634785;226;26821;-73
2022/01/29 11:39:35;;;;;;;20.83;16.40;;;7.90;99.90;;;;;;630582;226;26574;-73
2022/01/29 11:42:26;;;;;;;19.23;14.10;;;7.70;99.90;;;;;;625548;223;26579;-73
2022/01/29 11:44:53;;;;;;;15.73;12.90;;;7.70;99.90;;;;;;624700;229;26770;-72
2022/01/29 11:47:53;;;;;;;17.00;14.17;;;7.70;99.90;;;;;;625467;229;26749;-73
2022/01/29 11:50:44;;;;;;;19.60;14.27;;;7.80;99.90;;;;;;625316;230;26798;-73
2022/01/29 11:53:12;;;;;;;16.13;12.87;;;7.80;99.90;;;;;;624715;229;26928;-73
2022/01/29 11:55:42;;;;;;;15.90;13.50;;;8.00;99.90;;;;;;625473;230;26546;-73
2022/01/29 11:58:17;;;;;;;14.50;12.67;;;8.00;99.90;;;;;;626246;225;26919;-74
2022/01/29 12:00:46;;;;;;;14.60;12.80;;;8.10;99.90;;;;;;626721;229;26563;-73
2022/01/29 12:03:48;;;;;;;16.83;12.77;;;8.10;99.90;;;;;;626520;228;26883;-73
2022/01/29 12:06:21;;;;;;;14.93;12.70;;;8.40;99.90;;;;;;623553;228;26602;-73
2022/01/29 12:09:05;;;;;;;14.17;11.93;;;8.20;99.90;;;;;;629354;226;26776;-73
2022/01/29 12:11:29;;;;;;;13.77;11.57;;;8.20;99.90;;;;;;622480;226;26808;-73
2022/01/29 12:14:30;;;;;;;15.67;12.33;;;8.10;99.90;;;;;;635873;226;26604;-73
2022/01/29 12:16:59;;;;;;;12.70;11.40;;;8.20;99.90;;;;;;635591;225;26808;-73
2022/01/29 12:19:46;;;;;;;11.93;10.13;;;8.20;99.90;;;;;;635556;226;26765;-73
2022/01/29 12:22:14;;;;;;;12.90;10.73;;;8.00;99.90;;;;;;635402;226;26631;-73
2022/01/29 12:24:41;;;;;;;13.10;10.07;;;8.20;99.90;;;;;;635294;222;26795;-73
2022/01/29 12:27:08;;;;;;;15.27;12.03;;;8.50;99.90;;;;;;635475;226;26545;-73
2022/01/29 12:29:35;;;;;;;13.97;11.33;;;8.40;99.90;;;;;;635584;226;26756;-73
2022/01/29 12:32:03;;;;;;;12.33;10.33;;;8.40;99.90;;;;;;635577;226;26562;-73
2022/01/29 12:34:30;;;;;;;12.80;10.47;;;8.30;99.90;;;;;;635334;226;27074;-73
2022/01/29 12:37:09;;;;;;;10.87;9.77;;;8.20;99.90;;;;;;635178;226;26540;-73
2022/01/29 12:39:36;;;;;;;10.70;9.60;;;8.40;99.90;;;;;;635162;226;26829;-73
2022/01/29 12:42:13;;;;;;;11.87;9.47;;;8.50;99.90;;;;;;635236;226;26544;-73
2022/01/29 12:44:33;;;;;;;10.73;8.83;;;8.60;99.90;;;;;;634688;226;26815;-73
2022/01/29 12:47:01;;;;;;;12.33;9.27;;;8.40;99.90;;;;;;635249;226;26548;-73
2022/01/29 12:49:29;;;;;;;9.60;8.53;;;8.70;99.90;;;;;;635160;226;26913;-73
2022/01/29 12:51:56;;;;;;;10.33;8.40;;;8.60;99.90;;;;;;633940;226;26529;-73
2022/01/29 12:54:24;;;;;;;10.50;9.43;;;8.70;99.90;;;;;;635149;226;26536;-73
2022/01/29 12:56:51;;;;;;;12.87;8.60;;;8.70;99.90;;;;;;635161;226;26835;-73
2022/01/29 12:59:18;;;;;;;9.90;8.57;;;8.70;99.90;;;;;;635196;226;26585;-73